PWSweather.com
Personal Weather Stations
Station Observations
719732
Ponferrada, PonferradaES 24411

PonferradaPonferradaES 24411

Lat: 42.5728, Lon: -6.6425

Elevation: 1676

Station Type: PCE-FWS 20 con garita Ambient Weather SRS100LX

www.meteo.spyfly.es

High Low Average
Temperature 90.5°F32.5°C 56.3°F13.5°C 72.8°F22.7°C
Dew Point 64.9°F18.3°C 54.1°F12.3°C 60.5°F15.8°C
Winds 11.4 mph 18.3 kmh Calm Calm 3.0 mph SW4.8 kmh SW
Wind Gusts 19.7 mph31.7 kmh -- 6.0 mph9.7 kmh
Humidity 99% 31% 70%
Pressure 30.01 in1016.3 mb 29.86 in1011.2 mb -
Precipitation 0.00 in0.0 mm - -
Hour Temp Dew Point Humidity Winds Wind Gusts Pressure Precip Precip Rate Daily Precip Total
12:00 AM 67.6°F19.8°C 61.3°F16.3°C 80% 5.4 mph WSW8.7 kmh WSW 8.3 mph13.4 kmh 29.99 in1015.6 mb 0.00 in0.0 mm 0.00 in0.0 mm 0.00 in0.0 mm
12:05 AM 67.3°F19.6°C 60.9°F16.1°C 80% 4.5 mph W7.2 kmh W 8.3 mph13.4 kmh 29.99 in1015.6 mb 0.00 in0.0 mm 0.00 in0.0 mm 0.00 in0.0 mm
12:10 AM 67.3°F19.6°C 61.3°F16.3°C 81% 3.1 mph W5.0 kmh W 8.3 mph13.4 kmh 29.99 in1015.6 mb 0.00 in0.0 mm 0.00 in0.0 mm 0.00 in0.0 mm
12:15 AM 67.3°F19.6°C 61.3°F16.3°C 81% 7.6 mph WSW12.2 kmh WSW 9.2 mph14.8 kmh 29.99 in1015.6 mb 0.00 in0.0 mm 0.00 in0.0 mm 0.00 in0.0 mm
12:20 AM 67.3°F19.6°C 61.3°F16.3°C 81% 6.9 mph WSW11.1 kmh WSW 9.2 mph14.8 kmh 30.00 in1015.9 mb 0.00 in0.0 mm 0.00 in0.0 mm 0.00 in0.0 mm
12:25 AM 67.3°F19.6°C 61.3°F16.3°C 81% 3.8 mph WSW6.1 kmh WSW 9.2 mph14.8 kmh 29.99 in1015.6 mb 0.00 in0.0 mm 0.00 in0.0 mm 0.00 in0.0 mm
12:30 AM 66.9°F19.4°C 61.3°F16.3°C 82% 2.2 mph WSW3.5 kmh WSW 9.2 mph14.8 kmh 29.99 in1015.6 mb 0.00 in0.0 mm 0.00 in0.0 mm 0.00 in0.0 mm
12:35 AM 66.9°F19.4°C 61.3°F16.3°C 82% 3.1 mph WNW5.0 kmh WNW 7.6 mph12.2 kmh 30.00 in1015.9 mb 0.00 in0.0 mm 0.00 in0.0 mm 0.00 in0.0 mm
12:40 AM 66.7°F19.3°C 61.4°F16.3°C 83% 4.5 mph WNW7.2 kmh WNW 6.0 mph9.7 kmh 29.99 in1015.6 mb 0.00 in0.0 mm 0.00 in0.0 mm 0.00 in0.0 mm
12:45 AM 66.6°F19.2°C 61.3°F16.3°C 83% 4.5 mph W7.2 kmh W 6.9 mph11.1 kmh 29.99 in1015.6 mb 0.00 in0.0 mm 0.00 in0.0 mm 0.00 in0.0 mm
12:50 AM 66.6°F19.2°C 61.3°F16.3°C 83% 2.2 mph WSW3.5 kmh WSW 6.9 mph11.1 kmh 29.99 in1015.6 mb 0.00 in0.0 mm 0.00 in0.0 mm 0.00 in0.0 mm
12:55 AM 66.4°F19.1°C 61.1°F16.2°C 83% 3.8 mph WSW6.1 kmh WSW 8.3 mph13.4 kmh 29.99 in1015.6 mb 0.00 in0.0 mm 0.00 in0.0 mm 0.00 in0.0 mm
01:00 AM 66.2°F19.0°C 61.2°F16.2°C 84% 3.1 mph WSW5.0 kmh WSW 8.3 mph13.4 kmh 29.99 in1015.6 mb 0.00 in0.0 mm 0.00 in0.0 mm 0.00 in0.0 mm
01:05 AM 66.2°F19.0°C 61.2°F16.2°C 84% 3.1 mph NW5.0 kmh NW 6.0 mph9.7 kmh 29.99 in1015.6 mb 0.00 in0.0 mm 0.00 in0.0 mm 0.00 in0.0 mm
01:10 AM 65.8°F18.8°C 61.2°F16.2°C 85% 0.7 mph NW1.1 kmh NW 5.4 mph8.7 kmh 29.99 in1015.6 mb 0.00 in0.0 mm 0.00 in0.0 mm 0.00 in0.0 mm
01:15 AM 65.7°F18.7°C 61.1°F16.2°C 85% 2.2 mph W3.5 kmh W 5.4 mph8.7 kmh 30.00 in1015.9 mb 0.00 in0.0 mm 0.00 in0.0 mm 0.00 in0.0 mm
01:20 AM 65.7°F18.7°C 61.1°F16.2°C 85% 2.2 mph W3.5 kmh W 3.8 mph6.1 kmh 29.99 in1015.6 mb 0.00 in0.0 mm 0.00 in0.0 mm 0.00 in0.0 mm
01:25 AM 65.5°F18.6°C 61.2°F16.2°C 86% 1.6 mph W2.6 kmh W 3.8 mph6.1 kmh 29.99 in1015.6 mb 0.00 in0.0 mm 0.00 in0.0 mm 0.00 in0.0 mm
01:30 AM 65.3°F18.5°C 61.0°F16.1°C 86% 1.6 mph WSW2.6 kmh WSW 3.8 mph6.1 kmh 30.00 in1015.9 mb 0.00 in0.0 mm 0.00 in0.0 mm 0.00 in0.0 mm
01:35 AM 65.1°F18.4°C 60.8°F16.0°C 86% 0.7 mph WSW1.1 kmh WSW 5.4 mph8.7 kmh 29.99 in1015.6 mb 0.00 in0.0 mm 0.00 in0.0 mm 0.00 in0.0 mm
01:40 AM 64.9°F18.3°C 60.7°F15.9°C 86% 0.7 mph SW1.1 kmh SW 5.4 mph8.7 kmh 30.00 in1015.9 mb 0.00 in0.0 mm 0.00 in0.0 mm 0.00 in0.0 mm
01:45 AM 64.9°F18.3°C 60.7°F15.9°C 86% 1.6 mph SW2.6 kmh SW 4.5 mph7.2 kmh 30.00 in1015.9 mb 0.00 in0.0 mm 0.00 in0.0 mm 0.00 in0.0 mm
01:50 AM 64.8°F18.2°C 60.5°F15.8°C 86% 3.1 mph SSW5.0 kmh SSW 4.5 mph7.2 kmh 30.00 in1015.9 mb 0.00 in0.0 mm 0.00 in0.0 mm 0.00 in0.0 mm
01:55 AM 64.4°F18.0°C 60.1°F15.6°C 86% 1.6 mph S2.6 kmh S 4.5 mph7.2 kmh 30.00 in1015.9 mb 0.00 in0.0 mm 0.00 in0.0 mm 0.00 in0.0 mm
02:00 AM 64.0°F17.8°C 59.5°F15.3°C 85% 2.2 mph S3.5 kmh S 4.5 mph7.2 kmh 30.00 in1015.9 mb 0.00 in0.0 mm 0.00 in0.0 mm 0.00 in0.0 mm
02:05 AM 63.9°F17.7°C 59.6°F15.3°C 86% 0.7 mph S1.1 kmh S 4.5 mph7.2 kmh 29.99 in1015.6 mb 0.00 in0.0 mm 0.00 in0.0 mm 0.00 in0.0 mm
02:10 AM 63.7°F17.6°C 59.4°F15.2°C 86% 1.6 mph S2.6 kmh S 3.8 mph6.1 kmh 29.99 in1015.6 mb 0.00 in0.0 mm 0.00 in0.0 mm 0.00 in0.0 mm
02:15 AM 63.7°F17.6°C 59.4°F15.2°C 86% 0.7 mph S1.1 kmh S 3.1 mph5.0 kmh 29.99 in1015.6 mb 0.00 in0.0 mm 0.00 in0.0 mm 0.00 in0.0 mm
02:20 AM 63.1°F17.3°C 59.2°F15.1°C 87% 2.2 mph S3.5 kmh S 3.1 mph5.0 kmh 29.99 in1015.6 mb 0.00 in0.0 mm 0.00 in0.0 mm 0.00 in0.0 mm
02:25 AM 62.6°F17.0°C 58.7°F14.8°C 87% 1.6 mph NE2.6 kmh NE 3.1 mph5.0 kmh 29.99 in1015.6 mb 0.00 in0.0 mm 0.00 in0.0 mm 0.00 in0.0 mm
02:30 AM 62.1°F16.7°C 58.8°F14.9°C 89% 0.7 mph NNE1.1 kmh NNE 3.1 mph5.0 kmh 29.99 in1015.6 mb 0.00 in0.0 mm 0.00 in0.0 mm 0.00 in0.0 mm
02:35 AM 61.7°F16.5°C 58.8°F14.9°C 90% 0.7 mph N1.1 kmh N 2.2 mph3.5 kmh 29.99 in1015.6 mb 0.00 in0.0 mm 0.00 in0.0 mm 0.00 in0.0 mm
02:40 AM 61.3°F16.3°C 58.7°F14.8°C 91% 0.7 mph N1.1 kmh N 2.2 mph3.5 kmh 29.99 in1015.6 mb 0.00 in0.0 mm 0.00 in0.0 mm 0.00 in0.0 mm
02:50 AM 60.6°F15.9°C 58.6°F14.8°C 93% Calm Calm 1.6 mph2.6 kmh 29.99 in1015.6 mb 0.00 in0.0 mm 0.00 in0.0 mm 0.00 in0.0 mm
02:55 AM 60.3°F15.7°C 58.5°F14.7°C 94% 1.6 mph N2.6 kmh N 2.2 mph3.5 kmh 29.99 in1015.6 mb 0.00 in0.0 mm 0.00 in0.0 mm 0.00 in0.0 mm
03:00 AM 60.3°F15.7°C 58.5°F14.7°C 94% 1.6 mph NNE2.6 kmh NNE 2.2 mph3.5 kmh 29.99 in1015.6 mb 0.00 in0.0 mm 0.00 in0.0 mm 0.00 in0.0 mm
03:05 AM 60.3°F15.7°C 58.5°F14.7°C 94% 1.6 mph N2.6 kmh N 2.2 mph3.5 kmh 30.00 in1015.9 mb 0.00 in0.0 mm 0.00 in0.0 mm 0.00 in0.0 mm
03:10 AM 59.9°F15.5°C 58.5°F14.7°C 95% 0.7 mph N1.1 kmh N 2.2 mph3.5 kmh 29.99 in1015.6 mb 0.00 in0.0 mm 0.00 in0.0 mm 0.00 in0.0 mm
03:15 AM 59.7°F15.4°C 58.3°F14.6°C 95% Calm Calm 2.2 mph3.5 kmh 29.99 in1015.6 mb 0.00 in0.0 mm 0.00 in0.0 mm 0.00 in0.0 mm
03:20 AM 59.7°F15.4°C 58.6°F14.8°C 96% Calm Calm 1.6 mph2.6 kmh 29.99 in1015.6 mb 0.00 in0.0 mm 0.00 in0.0 mm 0.00 in0.0 mm
03:25 AM 59.5°F15.3°C 58.4°F14.7°C 96% Calm Calm 1.6 mph2.6 kmh 29.99 in1015.6 mb 0.00 in0.0 mm 0.00 in0.0 mm 0.00 in0.0 mm
03:30 AM 59.5°F15.3°C 58.4°F14.7°C 96% 0.7 mph NE1.1 kmh NE 1.6 mph2.6 kmh 29.99 in1015.6 mb 0.00 in0.0 mm 0.00 in0.0 mm 0.00 in0.0 mm
03:35 AM 59.4°F15.2°C 58.2°F14.6°C 96% 0.7 mph E1.1 kmh E 1.6 mph2.6 kmh 30.00 in1015.9 mb 0.00 in0.0 mm 0.00 in0.0 mm 0.00 in0.0 mm
03:40 AM 59.4°F15.2°C 58.5°F14.7°C 97% Calm Calm 1.6 mph2.6 kmh 30.00 in1015.9 mb 0.00 in0.0 mm 0.00 in0.0 mm 0.00 in0.0 mm
03:45 AM 59.4°F15.2°C 58.5°F14.7°C 97% Calm Calm 2.2 mph3.5 kmh 30.00 in1015.9 mb 0.00 in0.0 mm 0.00 in0.0 mm 0.00 in0.0 mm
03:50 AM 59.2°F15.1°C 58.3°F14.6°C 97% 1.6 mph N2.6 kmh N 2.2 mph3.5 kmh 29.99 in1015.6 mb 0.00 in0.0 mm 0.00 in0.0 mm 0.00 in0.0 mm
03:55 AM 59.0°F15.0°C 58.2°F14.6°C 97% Calm Calm 2.2 mph3.5 kmh 30.00 in1015.9 mb 0.00 in0.0 mm 0.00 in0.0 mm 0.00 in0.0 mm
04:00 AM 58.8°F14.9°C 58.3°F14.6°C 98% 1.6 mph NE2.6 kmh NE 2.2 mph3.5 kmh 29.99 in1015.6 mb 0.00 in0.0 mm 0.00 in0.0 mm 0.00 in0.0 mm
04:05 AM 58.6°F14.8°C 58.1°F14.5°C 98% 0.7 mph NE1.1 kmh NE 3.1 mph5.0 kmh 30.00 in1015.9 mb 0.00 in0.0 mm 0.00 in0.0 mm 0.00 in0.0 mm
04:10 AM 58.6°F14.8°C 58.1°F14.5°C 98% 0.7 mph NNE1.1 kmh NNE 3.1 mph5.0 kmh 29.99 in1015.6 mb 0.00 in0.0 mm 0.00 in0.0 mm 0.00 in0.0 mm
04:15 AM 58.5°F14.7°C 58.2°F14.6°C 99% 0.7 mph N1.1 kmh N 2.2 mph3.5 kmh 29.99 in1015.6 mb 0.00 in0.0 mm 0.00 in0.0 mm 0.00 in0.0 mm
04:20 AM 58.3°F14.6°C 58.0°F14.4°C 99% Calm Calm 2.2 mph3.5 kmh 30.00 in1015.9 mb 0.00 in0.0 mm 0.00 in0.0 mm 0.00 in0.0 mm
04:25 AM 58.3°F14.6°C 58.0°F14.4°C 99% Calm Calm 2.2 mph3.5 kmh 29.99 in1015.6 mb 0.00 in0.0 mm 0.00 in0.0 mm 0.00 in0.0 mm
04:30 AM 58.1°F14.5°C 57.8°F14.3°C 99% 0.7 mph N1.1 kmh N 2.2 mph3.5 kmh 29.99 in1015.6 mb 0.00 in0.0 mm 0.00 in0.0 mm 0.00 in0.0 mm
04:35 AM 58.1°F14.5°C 57.8°F14.3°C 99% Calm Calm 1.6 mph2.6 kmh 29.99 in1015.6 mb 0.00 in0.0 mm 0.00 in0.0 mm 0.00 in0.0 mm
04:40 AM 58.1°F14.5°C 57.8°F14.3°C 99% Calm Calm 1.6 mph2.6 kmh 29.99 in1015.6 mb 0.00 in0.0 mm 0.00 in0.0 mm 0.00 in0.0 mm
04:45 AM 58.1°F14.5°C 57.8°F14.3°C 99% Calm Calm 1.6 mph2.6 kmh 29.99 in1015.6 mb 0.00 in0.0 mm 0.00 in0.0 mm 0.00 in0.0 mm
04:50 AM 58.1°F14.5°C 57.8°F14.3°C 99% Calm Calm 1.6 mph2.6 kmh 29.99 in1015.6 mb 0.00 in0.0 mm 0.00 in0.0 mm 0.00 in0.0 mm
04:55 AM 58.1°F14.5°C 57.8°F14.3°C 99% Calm Calm 0.7 mph1.1 kmh 29.99 in1015.6 mb 0.00 in0.0 mm 0.00 in0.0 mm 0.00 in0.0 mm
05:00 AM 57.9°F14.4°C 57.7°F14.3°C 99% 1.6 mph NNE2.6 kmh NNE 2.2 mph3.5 kmh 29.99 in1015.6 mb 0.00 in0.0 mm 0.00 in0.0 mm 0.00 in0.0 mm
05:05 AM 57.9°F14.4°C 57.7°F14.3°C 99% 1.6 mph ENE2.6 kmh ENE 2.2 mph3.5 kmh 29.99 in1015.6 mb 0.00 in0.0 mm 0.00 in0.0 mm 0.00 in0.0 mm
05:10 AM 58.1°F14.5°C 57.8°F14.3°C 99% 1.6 mph ESE2.6 kmh ESE 2.2 mph3.5 kmh 29.99 in1015.6 mb 0.00 in0.0 mm 0.00 in0.0 mm 0.00 in0.0 mm
05:15 AM 58.1°F14.5°C 57.8°F14.3°C 99% 1.6 mph SE2.6 kmh SE 2.2 mph3.5 kmh 29.99 in1015.6 mb 0.00 in0.0 mm 0.00 in0.0 mm 0.00 in0.0 mm
05:20 AM 58.1°F14.5°C 57.8°F14.3°C 99% 0.7 mph ESE1.1 kmh ESE 2.2 mph3.5 kmh 29.99 in1015.6 mb 0.00 in0.0 mm 0.00 in0.0 mm 0.00 in0.0 mm
05:25 AM 58.1°F14.5°C 57.8°F14.3°C 99% 0.7 mph ESE1.1 kmh ESE 2.2 mph3.5 kmh 30.00 in1015.9 mb 0.00 in0.0 mm 0.00 in0.0 mm 0.00 in0.0 mm
05:30 AM 58.3°F14.6°C 58.0°F14.4°C 99% Calm Calm 2.2 mph3.5 kmh 29.99 in1015.6 mb 0.00 in0.0 mm 0.00 in0.0 mm 0.00 in0.0 mm
05:35 AM 58.1°F14.5°C 57.8°F14.3°C 99% Calm Calm 2.2 mph3.5 kmh 30.00 in1015.9 mb 0.00 in0.0 mm 0.00 in0.0 mm 0.00 in0.0 mm
05:40 AM 57.9°F14.4°C 57.7°F14.3°C 99% Calm Calm 0.7 mph1.1 kmh 30.00 in1015.9 mb 0.00 in0.0 mm 0.00 in0.0 mm 0.00 in0.0 mm
05:45 AM 57.7°F14.3°C 57.5°F14.2°C 99% Calm Calm 0.7 mph1.1 kmh 30.00 in1015.9 mb 0.00 in0.0 mm 0.00 in0.0 mm 0.00 in0.0 mm
05:50 AM 57.6°F14.2°C 57.3°F14.1°C 99% Calm Calm 0.7 mph1.1 kmh 30.00 in1015.9 mb 0.00 in0.0 mm 0.00 in0.0 mm 0.00 in0.0 mm
05:55 AM 57.4°F14.1°C 57.1°F13.9°C 99% Calm Calm -- 30.00 in1015.9 mb 0.00 in0.0 mm 0.00 in0.0 mm 0.00 in0.0 mm
06:00 AM 57.0°F13.9°C 56.8°F13.8°C 99% Calm Calm -- 30.00 in1015.9 mb 0.00 in0.0 mm 0.00 in0.0 mm 0.00 in0.0 mm
06:05 AM 57.0°F13.9°C 56.8°F13.8°C 99% Calm Calm 1.6 mph2.6 kmh 30.00 in1015.9 mb 0.00 in0.0 mm 0.00 in0.0 mm 0.00 in0.0 mm
06:10 AM 56.8°F13.8°C 56.6°F13.7°C 99% Calm Calm 1.6 mph2.6 kmh 30.01 in1016.3 mb 0.00 in0.0 mm 0.00 in0.0 mm 0.00 in0.0 mm
06:15 AM 56.8°F13.8°C 56.6°F13.7°C 99% Calm Calm 1.6 mph2.6 kmh 30.01 in1016.3 mb 0.00 in0.0 mm 0.00 in0.0 mm 0.00 in0.0 mm
06:20 AM 56.7°F13.7°C 56.4°F13.6°C 99% Calm Calm 1.6 mph2.6 kmh 30.01 in1016.3 mb 0.00 in0.0 mm 0.00 in0.0 mm 0.00 in0.0 mm
06:25 AM 56.7°F13.7°C 56.4°F13.6°C 99% 1.6 mph N2.6 kmh N 2.2 mph3.5 kmh 30.01 in1016.3 mb 0.00 in0.0 mm 0.00 in0.0 mm 0.00 in0.0 mm
06:30 AM 56.5°F13.6°C 56.2°F13.4°C 99% Calm Calm 2.2 mph3.5 kmh 30.01 in1016.3 mb 0.00 in0.0 mm 0.00 in0.0 mm 0.00 in0.0 mm
06:35 AM 56.3°F13.5°C 56.0°F13.3°C 99% Calm Calm 1.6 mph2.6 kmh 30.01 in1016.3 mb 0.00 in0.0 mm 0.00 in0.0 mm 0.00 in0.0 mm
06:40 AM 56.5°F13.6°C 56.2°F13.4°C 99% Calm Calm -- 30.01 in1016.3 mb 0.00 in0.0 mm 0.00 in0.0 mm 0.00 in0.0 mm
06:45 AM 56.5°F13.6°C 56.2°F13.4°C 99% 1.6 mph E2.6 kmh E 2.2 mph3.5 kmh 30.01 in1016.3 mb 0.00 in0.0 mm 0.00 in0.0 mm 0.00 in0.0 mm
06:50 AM 57.0°F13.9°C 56.8°F13.8°C 99% 1.6 mph E2.6 kmh E 3.1 mph5.0 kmh 30.01 in1016.3 mb 0.00 in0.0 mm 0.00 in0.0 mm 0.00 in0.0 mm
06:55 AM 57.4°F14.1°C 57.1°F13.9°C 99% 0.7 mph E1.1 kmh E 3.1 mph5.0 kmh 30.01 in1016.3 mb 0.00 in0.0 mm 0.00 in0.0 mm 0.00 in0.0 mm
07:00 AM 57.7°F14.3°C 57.5°F14.2°C 99% 0.7 mph E1.1 kmh E 3.1 mph5.0 kmh 30.01 in1016.3 mb 0.00 in0.0 mm 0.00 in0.0 mm 0.00 in0.0 mm
07:05 AM 58.3°F14.6°C 58.0°F14.4°C 99% 0.7 mph ENE1.1 kmh ENE 2.2 mph3.5 kmh 30.01 in1016.3 mb 0.00 in0.0 mm 0.00 in0.0 mm 0.00 in0.0 mm
07:10 AM 58.5°F14.7°C 58.2°F14.6°C 99% 0.7 mph NNE1.1 kmh NNE 2.2 mph3.5 kmh 30.01 in1016.3 mb 0.00 in0.0 mm 0.00 in0.0 mm 0.00 in0.0 mm
07:15 AM 59.0°F15.0°C 58.7°F14.8°C 99% Calm Calm 2.2 mph3.5 kmh 30.01 in1016.3 mb 0.00 in0.0 mm 0.00 in0.0 mm 0.00 in0.0 mm
07:20 AM 59.4°F15.2°C 59.1°F15.1°C 99% 0.7 mph N1.1 kmh N 1.6 mph2.6 kmh 30.01 in1016.3 mb 0.00 in0.0 mm 0.00 in0.0 mm 0.00 in0.0 mm
07:25 AM 59.7°F15.4°C 59.5°F15.3°C 99% 1.6 mph N2.6 kmh N 3.1 mph5.0 kmh 30.00 in1015.9 mb 0.00 in0.0 mm 0.00 in0.0 mm 0.00 in0.0 mm
07:30 AM 59.9°F15.5°C 59.6°F15.3°C 99% 0.7 mph N1.1 kmh N 3.1 mph5.0 kmh 30.01 in1016.3 mb 0.00 in0.0 mm 0.00 in0.0 mm 0.00 in0.0 mm
07:35 AM 60.4°F15.8°C 60.2°F15.7°C 99% 0.7 mph N1.1 kmh N 3.1 mph5.0 kmh 30.01 in1016.3 mb 0.00 in0.0 mm 0.00 in0.0 mm 0.00 in0.0 mm
07:40 AM 61.2°F16.2°C 60.6°F15.9°C 98% 1.6 mph N2.6 kmh N 2.2 mph3.5 kmh 30.01 in1016.3 mb 0.00 in0.0 mm 0.00 in0.0 mm 0.00 in0.0 mm
07:45 AM 61.2°F16.2°C 60.0°F15.6°C 96% 1.6 mph N2.6 kmh N 3.1 mph5.0 kmh 30.00 in1015.9 mb 0.00 in0.0 mm 0.00 in0.0 mm 0.00 in0.0 mm
07:50 AM 61.5°F16.4°C 60.4°F15.8°C 96% 2.2 mph N3.5 kmh N 3.1 mph5.0 kmh 30.01 in1016.3 mb 0.00 in0.0 mm 0.00 in0.0 mm 0.00 in0.0 mm
07:55 AM 62.1°F16.7°C 60.6°F15.9°C 95% 1.6 mph NNE2.6 kmh NNE 3.1 mph5.0 kmh 30.01 in1016.3 mb 0.00 in0.0 mm 0.00 in0.0 mm 0.00 in0.0 mm
08:00 AM 62.8°F17.1°C 60.7°F15.9°C 93% 1.6 mph E2.6 kmh E 3.1 mph5.0 kmh 30.01 in1016.3 mb 0.00 in0.0 mm 0.00 in0.0 mm 0.00 in0.0 mm
08:05 AM 63.7°F17.6°C 61.3°F16.3°C 92% 1.6 mph E2.6 kmh E 3.1 mph5.0 kmh 30.01 in1016.3 mb 0.00 in0.0 mm 0.00 in0.0 mm 0.00 in0.0 mm
08:10 AM 64.4°F18.0°C 61.4°F16.3°C 90% 0.7 mph E1.1 kmh E 3.1 mph5.0 kmh 30.01 in1016.3 mb 0.00 in0.0 mm 0.00 in0.0 mm 0.00 in0.0 mm
08:15 AM 64.9°F18.3°C 61.6°F16.4°C 89% 2.2 mph E3.5 kmh E 3.8 mph6.1 kmh 30.01 in1016.3 mb 0.00 in0.0 mm 0.00 in0.0 mm 0.00 in0.0 mm
08:20 AM 65.5°F18.6°C 61.5°F16.4°C 87% 0.7 mph E1.1 kmh E 3.8 mph6.1 kmh 30.01 in1016.3 mb 0.00 in0.0 mm 0.00 in0.0 mm 0.00 in0.0 mm
08:25 AM 66.2°F19.0°C 61.6°F16.4°C 85% 1.6 mph E2.6 kmh E 3.8 mph6.1 kmh 30.01 in1016.3 mb 0.00 in0.0 mm 0.00 in0.0 mm 0.00 in0.0 mm
08:30 AM 66.7°F19.3°C 61.8°F16.6°C 84% 2.2 mph SW3.5 kmh SW 3.8 mph6.1 kmh 30.01 in1016.3 mb 0.00 in0.0 mm 0.00 in0.0 mm 0.00 in0.0 mm
08:35 AM 67.1°F19.5°C 61.4°F16.3°C 82% 2.2 mph SSW3.5 kmh SSW 4.5 mph7.2 kmh 30.00 in1015.9 mb 0.00 in0.0 mm 0.00 in0.0 mm 0.00 in0.0 mm
08:40 AM 67.1°F19.5°C 60.7°F15.9°C 80% 0.7 mph S1.1 kmh S 4.5 mph7.2 kmh 30.00 in1015.9 mb 0.00 in0.0 mm 0.00 in0.0 mm 0.00 in0.0 mm
08:45 AM 67.8°F19.9°C 61.8°F16.6°C 81% 0.7 mph S1.1 kmh S 4.5 mph7.2 kmh 30.00 in1015.9 mb 0.00 in0.0 mm 0.00 in0.0 mm 0.00 in0.0 mm
08:50 AM 68.2°F20.1°C 61.4°F16.3°C 79% 1.6 mph S2.6 kmh S 3.8 mph6.1 kmh 30.00 in1015.9 mb 0.00 in0.0 mm 0.00 in0.0 mm 0.00 in0.0 mm
08:55 AM 68.5°F20.3°C 61.4°F16.3°C 78% 1.6 mph SW2.6 kmh SW 3.8 mph6.1 kmh 30.00 in1015.9 mb 0.00 in0.0 mm 0.00 in0.0 mm 0.00 in0.0 mm
09:00 AM 68.7°F20.4°C 61.6°F16.4°C 78% 3.8 mph WSW6.1 kmh WSW 5.4 mph8.7 kmh 30.00 in1015.9 mb 0.00 in0.0 mm 0.00 in0.0 mm 0.00 in0.0 mm
09:05 AM 68.7°F20.4°C 61.6°F16.4°C 78% 2.2 mph W3.5 kmh W 5.4 mph8.7 kmh 30.00 in1015.9 mb 0.00 in0.0 mm 0.00 in0.0 mm 0.00 in0.0 mm
09:10 AM 68.9°F20.5°C 62.1°F16.7°C 79% 1.6 mph W2.6 kmh W 5.4 mph8.7 kmh 30.00 in1015.9 mb 0.00 in0.0 mm 0.00 in0.0 mm 0.00 in0.0 mm
09:15 AM 69.1°F20.6°C 62.0°F16.7°C 78% 2.2 mph SW3.5 kmh SW 3.8 mph6.1 kmh 30.00 in1015.9 mb 0.00 in0.0 mm 0.00 in0.0 mm 0.00 in0.0 mm
09:20 AM 69.6°F20.9°C 62.1°F16.7°C 77% 0.7 mph SW1.1 kmh SW 4.5 mph7.2 kmh 30.00 in1015.9 mb 0.00 in0.0 mm 0.00 in0.0 mm 0.00 in0.0 mm
09:25 AM 70.0°F21.1°C 61.7°F16.5°C 75% 2.2 mph SW3.5 kmh SW 4.5 mph7.2 kmh 30.00 in1015.9 mb 0.00 in0.0 mm 0.00 in0.0 mm 0.00 in0.0 mm
09:30 AM 70.0°F21.1°C 61.7°F16.5°C 75% 2.2 mph S3.5 kmh S 4.5 mph7.2 kmh 30.00 in1015.9 mb 0.00 in0.0 mm 0.00 in0.0 mm 0.00 in0.0 mm
09:35 AM 70.2°F21.2°C 61.9°F16.6°C 75% 3.1 mph SW5.0 kmh SW 5.4 mph8.7 kmh 29.99 in1015.6 mb 0.00 in0.0 mm 0.00 in0.0 mm 0.00 in0.0 mm
09:40 AM 70.5°F21.4°C 61.9°F16.6°C 74% 3.8 mph WSW6.1 kmh WSW 5.4 mph8.7 kmh 29.99 in1015.6 mb 0.00 in0.0 mm 0.00 in0.0 mm 0.00 in0.0 mm
09:45 AM 70.5°F21.4°C 61.5°F16.4°C 73% 1.6 mph WSW2.6 kmh WSW 5.4 mph8.7 kmh 29.99 in1015.6 mb 0.00 in0.0 mm 0.00 in0.0 mm 0.00 in0.0 mm
09:50 AM 70.9°F21.6°C 62.6°F17.0°C 75% 3.1 mph SW5.0 kmh SW 5.4 mph8.7 kmh 29.99 in1015.6 mb 0.00 in0.0 mm 0.00 in0.0 mm 0.00 in0.0 mm
09:55 AM 71.2°F21.8°C 62.9°F17.2°C 75% 3.8 mph WNW6.1 kmh WNW 6.0 mph9.7 kmh 29.99 in1015.6 mb 0.00 in0.0 mm 0.00 in0.0 mm 0.00 in0.0 mm
10:00 AM 71.6°F22.0°C 62.9°F17.2°C 74% 0.7 mph NW1.1 kmh NW 6.0 mph9.7 kmh 29.99 in1015.6 mb 0.00 in0.0 mm 0.00 in0.0 mm 0.00 in0.0 mm
10:05 AM 72.0°F22.2°C 62.5°F16.9°C 72% 2.2 mph WNW3.5 kmh WNW 5.4 mph8.7 kmh 29.99 in1015.6 mb 0.00 in0.0 mm 0.00 in0.0 mm 0.00 in0.0 mm
10:10 AM 72.3°F22.4°C 62.4°F16.9°C 71% 1.6 mph SW2.6 kmh SW 4.5 mph7.2 kmh 29.98 in1015.2 mb 0.00 in0.0 mm 0.00 in0.0 mm 0.00 in0.0 mm
10:15 AM 72.7°F22.6°C 62.8°F17.1°C 71% 2.2 mph WSW3.5 kmh WSW 5.4 mph8.7 kmh 29.98 in1015.2 mb 0.00 in0.0 mm 0.00 in0.0 mm 0.00 in0.0 mm
10:20 AM 72.7°F22.6°C 62.0°F16.7°C 69% 0.7 mph W1.1 kmh W 5.4 mph8.7 kmh 29.98 in1015.2 mb 0.00 in0.0 mm 0.00 in0.0 mm 0.00 in0.0 mm
10:25 AM 72.9°F22.7°C 62.9°F17.2°C 71% Calm Calm 5.4 mph8.7 kmh 29.98 in1015.2 mb 0.00 in0.0 mm 0.00 in0.0 mm 0.00 in0.0 mm
10:30 AM 73.4°F23.0°C 62.6°F17.0°C 69% 2.2 mph S3.5 kmh S 6.9 mph11.1 kmh 29.98 in1015.2 mb 0.00 in0.0 mm 0.00 in0.0 mm 0.00 in0.0 mm
10:35 AM 73.9°F23.3°C 63.2°F17.3°C 69% 1.6 mph S2.6 kmh S 6.9 mph11.1 kmh 29.98 in1015.2 mb 0.00 in0.0 mm 0.00 in0.0 mm 0.00 in0.0 mm
10:40 AM 74.5°F23.6°C 64.1°F17.8°C 70% 3.1 mph NW5.0 kmh NW 6.0 mph9.7 kmh 29.98 in1015.2 mb 0.00 in0.0 mm 0.00 in0.0 mm 0.00 in0.0 mm
10:45 AM 74.8°F23.8°C 64.0°F17.8°C 69% 1.6 mph NNW2.6 kmh NNW 6.0 mph9.7 kmh 29.98 in1015.2 mb 0.00 in0.0 mm 0.00 in0.0 mm 0.00 in0.0 mm
10:50 AM 75.4°F24.1°C 64.1°F17.8°C 68% 2.2 mph NW3.5 kmh NW 6.0 mph9.7 kmh 29.97 in1014.9 mb 0.00 in0.0 mm 0.00 in0.0 mm 0.00 in0.0 mm
10:55 AM 75.6°F24.2°C 63.0°F17.2°C 65% 2.2 mph SW3.5 kmh SW 4.5 mph7.2 kmh 29.97 in1014.9 mb 0.00 in0.0 mm 0.00 in0.0 mm 0.00 in0.0 mm
11:00 AM 76.3°F24.6°C 63.7°F17.6°C 65% 0.7 mph WSW1.1 kmh WSW 6.9 mph11.1 kmh 29.97 in1014.9 mb 0.00 in0.0 mm 0.00 in0.0 mm 0.00 in0.0 mm
11:05 AM 76.3°F24.6°C 63.7°F17.6°C 65% 0.7 mph WNW1.1 kmh WNW 6.9 mph11.1 kmh 29.98 in1015.2 mb 0.00 in0.0 mm 0.00 in0.0 mm 0.00 in0.0 mm
11:10 AM 76.8°F24.9°C 63.8°F17.7°C 64% 0.7 mph WSW1.1 kmh WSW 4.5 mph7.2 kmh 29.97 in1014.9 mb 0.00 in0.0 mm 0.00 in0.0 mm 0.00 in0.0 mm
11:15 AM 77.5°F25.3°C 64.9°F18.3°C 65% 3.1 mph SW5.0 kmh SW 4.5 mph7.2 kmh 29.97 in1014.9 mb 0.00 in0.0 mm 0.00 in0.0 mm 0.00 in0.0 mm
11:20 AM 77.9°F25.5°C 64.3°F17.9°C 63% 2.2 mph W3.5 kmh W 6.0 mph9.7 kmh 29.97 in1014.9 mb 0.00 in0.0 mm 0.00 in0.0 mm 0.00 in0.0 mm
11:25 AM 78.3°F25.7°C 64.7°F18.2°C 63% 2.2 mph W3.5 kmh W 6.0 mph9.7 kmh 29.97 in1014.9 mb 0.00 in0.0 mm 0.00 in0.0 mm 0.00 in0.0 mm
11:30 AM 78.6°F25.9°C 64.1°F17.8°C 61% 3.8 mph SW6.1 kmh SW 5.4 mph8.7 kmh 29.97 in1014.9 mb 0.00 in0.0 mm 0.00 in0.0 mm 0.00 in0.0 mm
11:35 AM 78.4°F25.8°C 63.9°F17.7°C 61% 1.6 mph SW2.6 kmh SW 5.4 mph8.7 kmh 29.97 in1014.9 mb 0.00 in0.0 mm 0.00 in0.0 mm 0.00 in0.0 mm
11:40 AM 78.6°F25.9°C 64.1°F17.8°C 61% 3.1 mph W5.0 kmh W 7.6 mph12.2 kmh 29.97 in1014.9 mb 0.00 in0.0 mm 0.00 in0.0 mm 0.00 in0.0 mm
11:45 AM 79.0°F26.1°C 63.5°F17.5°C 59% 3.1 mph WSW5.0 kmh WSW 7.6 mph12.2 kmh 29.97 in1014.9 mb 0.00 in0.0 mm 0.00 in0.0 mm 0.00 in0.0 mm
11:50 AM 79.3°F26.3°C 63.3°F17.4°C 58% 3.1 mph SSW5.0 kmh SSW 4.5 mph7.2 kmh 29.97 in1014.9 mb 0.00 in0.0 mm 0.00 in0.0 mm 0.00 in0.0 mm
11:55 AM 80.1°F26.7°C 64.5°F18.1°C 59% 3.1 mph S5.0 kmh S 4.5 mph7.2 kmh 29.97 in1014.9 mb 0.00 in0.0 mm 0.00 in0.0 mm 0.00 in0.0 mm
12:00 PM 80.2°F26.8°C 63.2°F17.3°C 56% 2.2 mph SSW3.5 kmh SSW 4.5 mph7.2 kmh 29.96 in1014.6 mb 0.00 in0.0 mm 0.00 in0.0 mm 0.00 in0.0 mm
12:05 PM 80.1°F26.7°C 63.5°F17.5°C 57% 2.2 mph WNW3.5 kmh WNW 6.0 mph9.7 kmh 29.96 in1014.6 mb 0.00 in0.0 mm 0.00 in0.0 mm 0.00 in0.0 mm
12:10 PM 79.7°F26.5°C 62.7°F17.1°C 56% 3.1 mph NW5.0 kmh NW 6.0 mph9.7 kmh 29.96 in1014.6 mb 0.00 in0.0 mm 0.00 in0.0 mm 0.00 in0.0 mm
12:15 PM 80.1°F26.7°C 62.0°F16.7°C 54% 1.6 mph W2.6 kmh W 5.4 mph8.7 kmh 29.96 in1014.6 mb 0.00 in0.0 mm 0.00 in0.0 mm 0.00 in0.0 mm
12:20 PM 80.6°F27.0°C 63.0°F17.2°C 55% 3.1 mph WSW5.0 kmh WSW 6.9 mph11.1 kmh 29.95 in1014.2 mb 0.00 in0.0 mm 0.00 in0.0 mm 0.00 in0.0 mm
12:25 PM 80.8°F27.1°C 63.2°F17.3°C 55% 3.1 mph W5.0 kmh W 7.6 mph12.2 kmh 29.95 in1014.2 mb 0.00 in0.0 mm 0.00 in0.0 mm 0.00 in0.0 mm
12:30 PM 81.0°F27.2°C 62.3°F16.8°C 53% 3.8 mph WNW6.1 kmh WNW 7.6 mph12.2 kmh 29.95 in1014.2 mb 0.00 in0.0 mm 0.00 in0.0 mm 0.00 in0.0 mm
12:35 PM 81.1°F27.3°C 62.4°F16.9°C 53% 5.4 mph NW8.7 kmh NW 7.6 mph12.2 kmh 29.95 in1014.2 mb 0.00 in0.0 mm 0.00 in0.0 mm 0.00 in0.0 mm
12:40 PM 81.0°F27.2°C 61.7°F16.5°C 52% 3.1 mph W5.0 kmh W 11.4 mph18.3 kmh 29.95 in1014.2 mb 0.00 in0.0 mm 0.00 in0.0 mm 0.00 in0.0 mm
12:45 PM 81.3°F27.4°C 62.6°F17.0°C 53% 3.1 mph W5.0 kmh W 11.4 mph18.3 kmh 29.94 in1013.9 mb 0.00 in0.0 mm 0.00 in0.0 mm 0.00 in0.0 mm
12:50 PM 81.9°F27.7°C 62.6°F17.0°C 52% 2.2 mph WNW3.5 kmh WNW 9.8 mph15.8 kmh 29.94 in1013.9 mb 0.00 in0.0 mm 0.00 in0.0 mm 0.00 in0.0 mm
12:55 PM 82.2°F27.9°C 62.9°F17.2°C 52% 1.6 mph WNW2.6 kmh WNW 7.6 mph12.2 kmh 29.94 in1013.9 mb 0.00 in0.0 mm 0.00 in0.0 mm 0.00 in0.0 mm
01:00 PM 82.9°F28.3°C 62.4°F16.9°C 50% 1.6 mph W2.6 kmh W 7.6 mph12.2 kmh 29.94 in1013.9 mb 0.00 in0.0 mm 0.00 in0.0 mm 0.00 in0.0 mm
01:05 PM 83.5°F28.6°C 62.9°F17.2°C 50% 3.1 mph WSW5.0 kmh WSW 6.0 mph9.7 kmh 29.94 in1013.9 mb 0.00 in0.0 mm 0.00 in0.0 mm 0.00 in0.0 mm
01:10 PM 83.7°F28.7°C 61.3°F16.3°C 47% 8.3 mph SW13.4 kmh SW 11.4 mph18.3 kmh 29.94 in1013.9 mb 0.00 in0.0 mm 0.00 in0.0 mm 0.00 in0.0 mm
01:15 PM 83.8°F28.8°C 61.5°F16.4°C 47% 2.2 mph WSW3.5 kmh WSW 11.4 mph18.3 kmh 29.93 in1013.5 mb 0.00 in0.0 mm 0.00 in0.0 mm 0.00 in0.0 mm
01:20 PM 84.0°F28.9°C 61.7°F16.5°C 47% 4.5 mph WNW7.2 kmh WNW 11.4 mph18.3 kmh 29.93 in1013.5 mb 0.00 in0.0 mm 0.00 in0.0 mm 0.00 in0.0 mm
01:25 PM 83.8°F28.8°C 61.5°F16.4°C 47% 0.7 mph W1.1 kmh W 6.9 mph11.1 kmh 29.93 in1013.5 mb 0.00 in0.0 mm 0.00 in0.0 mm 0.00 in0.0 mm
01:30 PM 84.6°F29.2°C 62.2°F16.8°C 47% 2.2 mph W3.5 kmh W 6.9 mph11.1 kmh 29.93 in1013.5 mb 0.00 in0.0 mm 0.00 in0.0 mm 0.00 in0.0 mm
01:35 PM 85.3°F29.6°C 62.2°F16.8°C 46% 0.7 mph WSW1.1 kmh WSW 4.5 mph7.2 kmh 29.93 in1013.5 mb 0.00 in0.0 mm 0.00 in0.0 mm 0.00 in0.0 mm
01:40 PM 85.6°F29.8°C 61.9°F16.6°C 45% 7.6 mph W12.2 kmh W 8.3 mph13.4 kmh 29.93 in1013.5 mb 0.00 in0.0 mm 0.00 in0.0 mm 0.00 in0.0 mm
01:45 PM 85.1°F29.5°C 60.1°F15.6°C 43% 2.2 mph WNW3.5 kmh WNW 9.2 mph14.8 kmh 29.92 in1013.2 mb 0.00 in0.0 mm 0.00 in0.0 mm 0.00 in0.0 mm
01:50 PM 84.9°F29.4°C 60.0°F15.6°C 43% 2.2 mph SW3.5 kmh SW 9.2 mph14.8 kmh 29.92 in1013.2 mb 0.00 in0.0 mm 0.00 in0.0 mm 0.00 in0.0 mm
01:55 PM 85.1°F29.5°C 60.8°F16.0°C 44% 2.2 mph S3.5 kmh S 7.6 mph12.2 kmh 29.92 in1013.2 mb 0.00 in0.0 mm 0.00 in0.0 mm 0.00 in0.0 mm
02:00 PM 85.8°F29.9°C 62.1°F16.7°C 45% 2.2 mph S3.5 kmh S 9.2 mph14.8 kmh 29.92 in1013.2 mb 0.00 in0.0 mm 0.00 in0.0 mm 0.00 in0.0 mm
02:05 PM 86.5°F30.3°C 60.1°F15.6°C 41% 3.8 mph SSW6.1 kmh SSW 9.2 mph14.8 kmh 29.92 in1013.2 mb 0.00 in0.0 mm 0.00 in0.0 mm 0.00 in0.0 mm
02:10 PM 86.7°F30.4°C 59.6°F15.3°C 40% 4.5 mph S7.2 kmh S 7.6 mph12.2 kmh 29.92 in1013.2 mb 0.00 in0.0 mm 0.00 in0.0 mm 0.00 in0.0 mm
02:15 PM 87.1°F30.6°C 61.3°F16.3°C 42% 2.2 mph S3.5 kmh S 6.9 mph11.1 kmh 29.92 in1013.2 mb 0.00 in0.0 mm 0.00 in0.0 mm 0.00 in0.0 mm
02:20 PM 87.1°F30.6°C 61.3°F16.3°C 42% 4.5 mph NW7.2 kmh NW 6.0 mph9.7 kmh 29.91 in1012.9 mb 0.00 in0.0 mm 0.00 in0.0 mm 0.00 in0.0 mm
02:25 PM 86.7°F30.4°C 56.6°F13.7°C 36% 3.8 mph NNE6.1 kmh NNE 6.0 mph9.7 kmh 29.91 in1012.9 mb 0.00 in0.0 mm 0.00 in0.0 mm 0.00 in0.0 mm
02:30 PM 86.7°F30.4°C 55.8°F13.2°C 35% 2.2 mph ESE3.5 kmh ESE 6.0 mph9.7 kmh 29.91 in1012.9 mb 0.00 in0.0 mm 0.00 in0.0 mm 0.00 in0.0 mm
02:35 PM 87.3°F30.7°C 57.1°F13.9°C 36% 3.8 mph S6.1 kmh S 6.0 mph9.7 kmh 29.91 in1012.9 mb 0.00 in0.0 mm 0.00 in0.0 mm 0.00 in0.0 mm
02:40 PM 87.6°F30.9°C 58.2°F14.6°C 37% 1.6 mph NNW2.6 kmh NNW 6.0 mph9.7 kmh 29.91 in1012.9 mb 0.00 in0.0 mm 0.00 in0.0 mm 0.00 in0.0 mm
02:45 PM 88.2°F31.2°C 57.9°F14.4°C 36% 3.1 mph NNW5.0 kmh NNW 6.9 mph11.1 kmh 29.90 in1012.5 mb 0.00 in0.0 mm 0.00 in0.0 mm 0.00 in0.0 mm
02:50 PM 88.3°F31.3°C 56.5°F13.6°C 34% 3.8 mph N6.1 kmh N 6.9 mph11.1 kmh 29.91 in1012.9 mb 0.00 in0.0 mm 0.00 in0.0 mm 0.00 in0.0 mm
02:55 PM 88.2°F31.2°C 57.1°F13.9°C 35% 3.8 mph N6.1 kmh N 8.3 mph13.4 kmh 29.90 in1012.5 mb 0.00 in0.0 mm 0.00 in0.0 mm 0.00 in0.0 mm
03:00 PM 88.3°F31.3°C 57.3°F14.1°C 35% 3.1 mph NW5.0 kmh NW 8.3 mph13.4 kmh 29.90 in1012.5 mb 0.00 in0.0 mm 0.00 in0.0 mm 0.00 in0.0 mm
03:05 PM 88.7°F31.5°C 56.8°F13.8°C 34% 2.2 mph WNW3.5 kmh WNW 6.9 mph11.1 kmh 29.90 in1012.5 mb 0.00 in0.0 mm 0.00 in0.0 mm 0.00 in0.0 mm
03:10 PM 88.9°F31.6°C 57.7°F14.3°C 35% 1.6 mph WSW2.6 kmh WSW 5.4 mph8.7 kmh 29.89 in1012.2 mb 0.00 in0.0 mm 0.00 in0.0 mm 0.00 in0.0 mm
03:15 PM 89.1°F31.7°C 57.1°F13.9°C 34% 1.6 mph W2.6 kmh W 6.9 mph11.1 kmh 29.89 in1012.2 mb 0.00 in0.0 mm 0.00 in0.0 mm 0.00 in0.0 mm
03:20 PM 88.3°F31.3°C 58.1°F14.5°C 36% 4.5 mph WNW7.2 kmh WNW 7.6 mph12.2 kmh 29.89 in1012.2 mb 0.00 in0.0 mm 0.00 in0.0 mm 0.00 in0.0 mm
03:25 PM 88.0°F31.1°C 57.7°F14.3°C 36% 6.0 mph W9.7 kmh W 8.3 mph13.4 kmh 29.89 in1012.2 mb 0.00 in0.0 mm 0.00 in0.0 mm 0.00 in0.0 mm
03:30 PM 88.0°F31.1°C 59.2°F15.1°C 38% 3.8 mph WNW6.1 kmh WNW 8.3 mph13.4 kmh 29.89 in1012.2 mb 0.00 in0.0 mm 0.00 in0.0 mm 0.00 in0.0 mm
03:35 PM 88.3°F31.3°C 58.8°F14.9°C 37% 3.1 mph NW5.0 kmh NW 7.6 mph12.2 kmh 29.89 in1012.2 mb 0.00 in0.0 mm 0.00 in0.0 mm 0.00 in0.0 mm
03:40 PM 88.7°F31.5°C 58.4°F14.7°C 36% 5.4 mph W8.7 kmh W 6.9 mph11.1 kmh 29.89 in1012.2 mb 0.00 in0.0 mm 0.00 in0.0 mm 0.00 in0.0 mm
03:45 PM 88.9°F31.6°C 56.9°F13.8°C 34% 1.6 mph W2.6 kmh W 6.9 mph11.1 kmh 29.89 in1012.2 mb 0.00 in0.0 mm 0.00 in0.0 mm 0.00 in0.0 mm
03:50 PM 89.4°F31.9°C 59.0°F15.0°C 36% 3.8 mph NW6.1 kmh NW 6.9 mph11.1 kmh 29.88 in1011.9 mb 0.00 in0.0 mm 0.00 in0.0 mm 0.00 in0.0 mm
03:55 PM 89.8°F32.1°C 56.9°F13.8°C 33% 5.4 mph NW8.7 kmh NW 9.2 mph14.8 kmh 29.88 in1011.9 mb 0.00 in0.0 mm 0.00 in0.0 mm 0.00 in0.0 mm
04:00 PM 90.1°F32.3°C 58.0°F14.4°C 34% 2.2 mph NW3.5 kmh NW 9.2 mph14.8 kmh 29.88 in1011.9 mb 0.00 in0.0 mm 0.00 in0.0 mm 0.00 in0.0 mm
04:05 PM 90.5°F32.5°C 57.5°F14.2°C 33% 6.9 mph WSW11.1 kmh WSW 9.2 mph14.8 kmh 29.88 in1011.9 mb 0.00 in0.0 mm 0.00 in0.0 mm 0.00 in0.0 mm
04:10 PM 89.6°F32.0°C 56.7°F13.7°C 33% 3.1 mph W5.0 kmh W 9.2 mph14.8 kmh 29.88 in1011.9 mb 0.00 in0.0 mm 0.00 in0.0 mm 0.00 in0.0 mm
04:15 PM 89.1°F31.7°C 56.3°F13.5°C 33% 1.6 mph NW2.6 kmh NW 9.2 mph14.8 kmh 29.88 in1011.9 mb 0.00 in0.0 mm 0.00 in0.0 mm 0.00 in0.0 mm
04:20 PM 88.9°F31.6°C 56.9°F13.8°C 34% 2.2 mph N3.5 kmh N 7.6 mph12.2 kmh 29.88 in1011.9 mb 0.00 in0.0 mm 0.00 in0.0 mm 0.00 in0.0 mm
04:25 PM 89.1°F31.7°C 57.1°F13.9°C 34% 9.2 mph NW14.8 kmh NW 12.1 mph19.5 kmh 29.87 in1011.5 mb 0.00 in0.0 mm 0.00 in0.0 mm 0.00 in0.0 mm
04:30 PM 88.7°F31.5°C 56.0°F13.3°C 33% 3.8 mph N6.1 kmh N 19.7 mph31.7 kmh 29.87 in1011.5 mb 0.00 in0.0 mm 0.00 in0.0 mm 0.00 in0.0 mm
04:35 PM 88.9°F31.6°C 56.1°F13.4°C 33% 3.8 mph N6.1 kmh N 19.7 mph31.7 kmh 29.88 in1011.9 mb 0.00 in0.0 mm 0.00 in0.0 mm 0.00 in0.0 mm
04:40 PM 88.5°F31.4°C 54.1°F12.3°C 31% 3.8 mph N6.1 kmh N 6.9 mph11.1 kmh 29.88 in1011.9 mb 0.00 in0.0 mm 0.00 in0.0 mm 0.00 in0.0 mm
04:45 PM 87.8°F31.0°C 54.3°F12.4°C 32% 3.1 mph NNE5.0 kmh NNE 5.4 mph8.7 kmh 29.87 in1011.5 mb 0.00 in0.0 mm 0.00 in0.0 mm 0.00 in0.0 mm
04:50 PM 86.9°F30.5°C 54.4°F12.4°C 33% 1.6 mph N2.6 kmh N 4.5 mph7.2 kmh 29.87 in1011.5 mb 0.00 in0.0 mm 0.00 in0.0 mm 0.00 in0.0 mm
04:55 PM 86.9°F30.5°C 56.0°F13.3°C 35% 5.4 mph NNW8.7 kmh NNW 6.0 mph9.7 kmh 29.87 in1011.5 mb 0.00 in0.0 mm 0.00 in0.0 mm 0.00 in0.0 mm
05:00 PM 86.7°F30.4°C 54.2°F12.3°C 33% 3.1 mph NW5.0 kmh NW 6.0 mph9.7 kmh 29.87 in1011.5 mb 0.00 in0.0 mm 0.00 in0.0 mm 0.00 in0.0 mm
05:05 PM 86.7°F30.4°C 58.1°F14.5°C 38% 3.1 mph WNW5.0 kmh WNW 6.0 mph9.7 kmh 29.87 in1011.5 mb 0.00 in0.0 mm 0.00 in0.0 mm 0.00 in0.0 mm
05:10 PM 86.7°F30.4°C 59.6°F15.3°C 40% 4.5 mph WNW7.2 kmh WNW 6.9 mph11.1 kmh 29.87 in1011.5 mb 0.00 in0.0 mm 0.00 in0.0 mm 0.00 in0.0 mm
05:15 PM 86.9°F30.5°C 61.8°F16.6°C 43% 8.3 mph NW13.4 kmh NW 10.7 mph17.2 kmh 29.87 in1011.5 mb 0.00 in0.0 mm 0.00 in0.0 mm 0.00 in0.0 mm
05:20 PM 86.9°F30.5°C 61.8°F16.6°C 43% 4.5 mph WNW7.2 kmh WNW 10.7 mph17.2 kmh 29.87 in1011.5 mb 0.00 in0.0 mm 0.00 in0.0 mm 0.00 in0.0 mm
05:25 PM 87.3°F30.7°C 62.1°F16.7°C 43% 7.6 mph W12.2 kmh W 11.4 mph18.3 kmh 29.87 in1011.5 mb 0.00 in0.0 mm 0.00 in0.0 mm 0.00 in0.0 mm
05:30 PM 86.9°F30.5°C 61.8°F16.6°C 43% 4.5 mph W7.2 kmh W 11.4 mph18.3 kmh 29.87 in1011.5 mb 0.00 in0.0 mm 0.00 in0.0 mm 0.00 in0.0 mm
05:35 PM 86.9°F30.5°C 61.8°F16.6°C 43% 5.4 mph WNW8.7 kmh WNW 15.2 mph24.5 kmh 29.87 in1011.5 mb 0.00 in0.0 mm 0.00 in0.0 mm 0.00 in0.0 mm
05:40 PM 86.7°F30.4°C 61.6°F16.4°C 43% 8.3 mph WNW13.4 kmh WNW 15.2 mph24.5 kmh 29.87 in1011.5 mb 0.00 in0.0 mm 0.00 in0.0 mm 0.00 in0.0 mm
05:45 PM 86.5°F30.3°C 62.1°F16.7°C 44% 10.7 mph W17.2 kmh W 15.9 mph25.6 kmh 29.87 in1011.5 mb 0.00 in0.0 mm 0.00 in0.0 mm 0.00 in0.0 mm
05:50 PM 86.2°F30.1°C 61.8°F16.6°C 44% 7.6 mph WNW12.2 kmh WNW 15.9 mph25.6 kmh 29.87 in1011.5 mb 0.00 in0.0 mm 0.00 in0.0 mm 0.00 in0.0 mm
05:55 PM 86.0°F30.0°C 61.6°F16.4°C 44% 7.6 mph WNW12.2 kmh WNW 15.9 mph25.6 kmh 29.87 in1011.5 mb 0.00 in0.0 mm 0.00 in0.0 mm 0.00 in0.0 mm
06:00 PM 86.0°F30.0°C 62.9°F17.2°C 46% 6.0 mph NW9.7 kmh NW 14.5 mph23.3 kmh 29.87 in1011.5 mb 0.00 in0.0 mm 0.00 in0.0 mm 0.00 in0.0 mm
06:05 PM 85.8°F29.9°C 62.7°F17.1°C 46% 9.8 mph NW15.8 kmh NW 13.6 mph21.9 kmh 29.87 in1011.5 mb 0.00 in0.0 mm 0.00 in0.0 mm 0.00 in0.0 mm
06:10 PM 85.1°F29.5°C 62.0°F16.7°C 46% 9.2 mph NW14.8 kmh NW 13.6 mph21.9 kmh 29.86 in1011.2 mb 0.00 in0.0 mm 0.00 in0.0 mm 0.00 in0.0 mm
06:15 PM 84.6°F29.2°C 61.6°F16.4°C 46% 9.2 mph WNW14.8 kmh WNW 15.9 mph25.6 kmh 29.87 in1011.5 mb 0.00 in0.0 mm 0.00 in0.0 mm 0.00 in0.0 mm
06:20 PM 84.4°F29.1°C 62.0°F16.7°C 47% 7.6 mph WNW12.2 kmh WNW 15.9 mph25.6 kmh 29.87 in1011.5 mb 0.00 in0.0 mm 0.00 in0.0 mm 0.00 in0.0 mm
06:25 PM 84.2°F29.0°C 61.8°F16.6°C 47% 6.0 mph NW9.7 kmh NW 13.0 mph20.9 kmh 29.87 in1011.5 mb 0.00 in0.0 mm 0.00 in0.0 mm 0.00 in0.0 mm
06:30 PM 84.0°F28.9°C 62.3°F16.8°C 48% 8.3 mph NW13.4 kmh NW 13.0 mph20.9 kmh 29.87 in1011.5 mb 0.00 in0.0 mm 0.00 in0.0 mm 0.00 in0.0 mm
06:35 PM 83.8°F28.8°C 62.1°F16.7°C 48% 6.9 mph WNW11.1 kmh WNW 13.0 mph20.9 kmh 29.86 in1011.2 mb 0.00 in0.0 mm 0.00 in0.0 mm 0.00 in0.0 mm
06:40 PM 83.5°F28.6°C 61.8°F16.6°C 48% 9.2 mph W14.8 kmh W 13.0 mph20.9 kmh 29.87 in1011.5 mb 0.00 in0.0 mm 0.00 in0.0 mm 0.00 in0.0 mm
06:45 PM 83.1°F28.4°C 62.6°F17.0°C 50% 4.5 mph WNW7.2 kmh WNW 14.5 mph23.3 kmh 29.87 in1011.5 mb 0.00 in0.0 mm 0.00 in0.0 mm 0.00 in0.0 mm
06:50 PM 82.9°F28.3°C 62.4°F16.9°C 50% 8.3 mph WNW13.4 kmh WNW 15.2 mph24.5 kmh 29.87 in1011.5 mb 0.00 in0.0 mm 0.00 in0.0 mm 0.00 in0.0 mm
06:55 PM 82.6°F28.1°C 62.1°F16.7°C 50% 7.6 mph W12.2 kmh W 15.2 mph24.5 kmh 29.87 in1011.5 mb 0.00 in0.0 mm 0.00 in0.0 mm 0.00 in0.0 mm
07:00 PM 82.2°F27.9°C 62.9°F17.2°C 52% 11.4 mph W18.3 kmh W 13.6 mph21.9 kmh 29.87 in1011.5 mb 0.00 in0.0 mm 0.00 in0.0 mm 0.00 in0.0 mm
07:05 PM 81.5°F27.5°C 62.2°F16.8°C 52% 11.4 mph WNW18.3 kmh WNW 15.2 mph24.5 kmh 29.87 in1011.5 mb 0.00 in0.0 mm 0.00 in0.0 mm 0.00 in0.0 mm
07:10 PM 81.0°F27.2°C 62.3°F16.8°C 53% 6.9 mph WNW11.1 kmh WNW 15.2 mph24.5 kmh 29.87 in1011.5 mb 0.00 in0.0 mm 0.00 in0.0 mm 0.00 in0.0 mm
07:15 PM 80.6°F27.0°C 61.9°F16.6°C 53% 6.0 mph W9.7 kmh W 13.6 mph21.9 kmh 29.87 in1011.5 mb 0.00 in0.0 mm 0.00 in0.0 mm 0.00 in0.0 mm
07:20 PM 80.1°F26.7°C 62.5°F16.9°C 55% 4.5 mph W7.2 kmh W 13.6 mph21.9 kmh 29.88 in1011.9 mb 0.00 in0.0 mm 0.00 in0.0 mm 0.00 in0.0 mm
07:25 PM 79.7°F26.5°C 62.7°F17.1°C 56% 5.4 mph WNW8.7 kmh WNW 13.6 mph21.9 kmh 29.88 in1011.9 mb 0.00 in0.0 mm 0.00 in0.0 mm 0.00 in0.0 mm
07:30 PM 79.5°F26.4°C 62.5°F16.9°C 56% 3.8 mph W6.1 kmh W 10.7 mph17.2 kmh 29.88 in1011.9 mb 0.00 in0.0 mm 0.00 in0.0 mm 0.00 in0.0 mm
07:35 PM 79.3°F26.3°C 62.8°F17.1°C 57% 6.9 mph WNW11.1 kmh WNW 11.4 mph18.3 kmh 29.88 in1011.9 mb 0.00 in0.0 mm 0.00 in0.0 mm 0.00 in0.0 mm
07:40 PM 79.0°F26.1°C 62.5°F16.9°C 57% 3.8 mph NW6.1 kmh NW 12.1 mph19.5 kmh 29.88 in1011.9 mb 0.00 in0.0 mm 0.00 in0.0 mm 0.00 in0.0 mm
07:45 PM 78.8°F26.0°C 62.8°F17.1°C 58% 6.9 mph NW11.1 kmh NW 12.1 mph19.5 kmh 29.88 in1011.9 mb 0.00 in0.0 mm 0.00 in0.0 mm 0.00 in0.0 mm
07:50 PM 78.6°F25.9°C 63.1°F17.3°C 59% 6.9 mph W11.1 kmh W 10.7 mph17.2 kmh 29.88 in1011.9 mb 0.00 in0.0 mm 0.00 in0.0 mm 0.00 in0.0 mm
07:55 PM 78.3°F25.7°C 63.3°F17.4°C 60% 4.5 mph W7.2 kmh W 10.7 mph17.2 kmh 29.89 in1012.2 mb 0.00 in0.0 mm 0.00 in0.0 mm 0.00 in0.0 mm
08:00 PM 78.1°F25.6°C 63.1°F17.3°C 60% 4.5 mph WNW7.2 kmh WNW 9.8 mph15.8 kmh 29.88 in1011.9 mb 0.00 in0.0 mm 0.00 in0.0 mm 0.00 in0.0 mm
08:05 PM 78.1°F25.6°C 63.6°F17.6°C 61% 4.5 mph W7.2 kmh W 9.2 mph14.8 kmh 29.88 in1011.9 mb 0.00 in0.0 mm 0.00 in0.0 mm 0.00 in0.0 mm
08:10 PM 78.1°F25.6°C 63.6°F17.6°C 61% 4.5 mph WSW7.2 kmh WSW 6.0 mph9.7 kmh 29.89 in1012.2 mb 0.00 in0.0 mm 0.00 in0.0 mm 0.00 in0.0 mm
08:15 PM 78.1°F25.6°C 63.6°F17.6°C 61% 4.5 mph SW7.2 kmh SW 6.0 mph9.7 kmh 29.89 in1012.2 mb 0.00 in0.0 mm 0.00 in0.0 mm 0.00 in0.0 mm
08:20 PM 78.1°F25.6°C 63.6°F17.6°C 61% 4.5 mph SW7.2 kmh SW 6.0 mph9.7 kmh 29.89 in1012.2 mb 0.00 in0.0 mm 0.00 in0.0 mm 0.00 in0.0 mm
08:25 PM 77.0°F25.0°C 63.5°F17.5°C 63% 5.4 mph NW8.7 kmh NW 7.6 mph12.2 kmh 29.89 in1012.2 mb 0.00 in0.0 mm 0.00 in0.0 mm 0.00 in0.0 mm
08:30 PM 76.5°F24.7°C 63.4°F17.4°C 64% 4.5 mph NW7.2 kmh NW 7.6 mph12.2 kmh 29.89 in1012.2 mb 0.00 in0.0 mm 0.00 in0.0 mm 0.00 in0.0 mm
08:35 PM 76.5°F24.7°C 63.4°F17.4°C 64% 4.5 mph NW7.2 kmh NW 7.6 mph12.2 kmh 29.89 in1012.2 mb 0.00 in0.0 mm 0.00 in0.0 mm 0.00 in0.0 mm
08:40 PM 76.5°F24.7°C 63.4°F17.4°C 64% 4.5 mph NW7.2 kmh NW 7.6 mph12.2 kmh 29.89 in1012.2 mb 0.00 in0.0 mm 0.00 in0.0 mm 0.00 in0.0 mm
08:45 PM 76.5°F24.7°C 63.4°F17.4°C 64% 4.5 mph NW7.2 kmh NW 7.6 mph12.2 kmh 29.89 in1012.2 mb 0.00 in0.0 mm 0.00 in0.0 mm 0.00 in0.0 mm
08:50 PM 75.0°F23.9°C 62.9°F17.2°C 66% 4.5 mph NW7.2 kmh NW 6.0 mph9.7 kmh 29.89 in1012.2 mb 0.00 in0.0 mm 0.00 in0.0 mm 0.00 in0.0 mm
08:55 PM 75.0°F23.9°C 62.9°F17.2°C 66% 4.5 mph NW7.2 kmh NW 6.0 mph9.7 kmh 29.89 in1012.2 mb 0.00 in0.0 mm 0.00 in0.0 mm 0.00 in0.0 mm
09:00 PM 75.0°F23.9°C 62.9°F17.2°C 66% 4.5 mph NW7.2 kmh NW 6.0 mph9.7 kmh 29.89 in1012.2 mb 0.00 in0.0 mm 0.00 in0.0 mm 0.00 in0.0 mm
09:05 PM 74.1°F23.4°C 62.5°F16.9°C 67% 5.4 mph NW8.7 kmh NW 9.2 mph14.8 kmh 29.89 in1012.2 mb 0.00 in0.0 mm 0.00 in0.0 mm 0.00 in0.0 mm
09:10 PM 74.1°F23.4°C 62.5°F16.9°C 67% 5.4 mph NW8.7 kmh NW 9.2 mph14.8 kmh 29.90 in1012.5 mb 0.00 in0.0 mm 0.00 in0.0 mm 0.00 in0.0 mm
09:15 PM 74.1°F23.4°C 62.5°F16.9°C 67% 5.4 mph NW8.7 kmh NW 9.2 mph14.8 kmh 29.90 in1012.5 mb 0.00 in0.0 mm 0.00 in0.0 mm 0.00 in0.0 mm
09:20 PM 74.1°F23.4°C 62.5°F16.9°C 67% 5.4 mph NW8.7 kmh NW 9.2 mph14.8 kmh 29.90 in1012.5 mb 0.00 in0.0 mm 0.00 in0.0 mm 0.00 in0.0 mm
09:25 PM 74.1°F23.4°C 62.5°F16.9°C 67% 5.4 mph NW8.7 kmh NW 9.2 mph14.8 kmh 29.90 in1012.5 mb 0.00 in0.0 mm 0.00 in0.0 mm 0.00 in0.0 mm
09:30 PM 74.1°F23.4°C 62.5°F16.9°C 67% 5.4 mph NW8.7 kmh NW 9.2 mph14.8 kmh 29.90 in1012.5 mb 0.00 in0.0 mm 0.00 in0.0 mm 0.00 in0.0 mm
09:35 PM 74.1°F23.4°C 62.5°F16.9°C 67% 5.4 mph NW8.7 kmh NW 9.2 mph14.8 kmh 29.90 in1012.5 mb 0.00 in0.0 mm 0.00 in0.0 mm 0.00 in0.0 mm
09:40 PM 71.8°F22.1°C 61.9°F16.6°C 71% 3.8 mph NW6.1 kmh NW 8.3 mph13.4 kmh 29.90 in1012.5 mb 0.00 in0.0 mm 0.00 in0.0 mm 0.00 in0.0 mm
09:50 PM 71.8°F22.1°C 61.9°F16.6°C 71% 3.8 mph W6.1 kmh W 8.3 mph13.4 kmh 29.90 in1012.5 mb 0.00 in0.0 mm 0.00 in0.0 mm 0.00 in0.0 mm
09:55 PM 71.8°F22.1°C 61.9°F16.6°C 71% 3.8 mph W6.1 kmh W 8.3 mph13.4 kmh 29.90 in1012.5 mb 0.00 in0.0 mm 0.00 in0.0 mm 0.00 in0.0 mm
10:00 PM 71.8°F22.1°C 61.9°F16.6°C 71% 3.8 mph W6.1 kmh W 8.3 mph13.4 kmh 29.89 in1012.2 mb 0.00 in0.0 mm 0.00 in0.0 mm 0.00 in0.0 mm
10:05 PM 71.8°F22.1°C 61.9°F16.6°C 71% 3.8 mph W6.1 kmh W 8.3 mph13.4 kmh 29.90 in1012.5 mb 0.00 in0.0 mm 0.00 in0.0 mm 0.00 in0.0 mm
10:10 PM 70.5°F21.4°C 61.5°F16.4°C 73% 5.4 mph WSW8.7 kmh WSW 6.9 mph11.1 kmh 29.91 in1012.9 mb 0.00 in0.0 mm 0.00 in0.0 mm 0.00 in0.0 mm
10:15 PM 70.5°F21.4°C 61.5°F16.4°C 73% 5.4 mph WSW8.7 kmh WSW 6.9 mph11.1 kmh 29.91 in1012.9 mb 0.00 in0.0 mm 0.00 in0.0 mm 0.00 in0.0 mm
10:20 PM 70.5°F21.4°C 61.5°F16.4°C 73% 5.4 mph WSW8.7 kmh WSW 6.9 mph11.1 kmh 29.91 in1012.9 mb 0.00 in0.0 mm 0.00 in0.0 mm 0.00 in0.0 mm
10:25 PM 70.5°F21.4°C 61.5°F16.4°C 73% 5.4 mph WSW8.7 kmh WSW 6.9 mph11.1 kmh 29.91 in1012.9 mb 0.00 in0.0 mm 0.00 in0.0 mm 0.00 in0.0 mm
10:30 PM 70.5°F21.4°C 61.5°F16.4°C 73% 5.4 mph WSW8.7 kmh WSW 6.9 mph11.1 kmh 29.92 in1013.2 mb 0.00 in0.0 mm 0.00 in0.0 mm 0.00 in0.0 mm
10:35 PM 70.5°F21.4°C 61.5°F16.4°C 73% 5.4 mph WSW8.7 kmh WSW 6.9 mph11.1 kmh 29.92 in1013.2 mb 0.00 in0.0 mm 0.00 in0.0 mm 0.00 in0.0 mm
10:40 PM 70.5°F21.4°C 61.5°F16.4°C 73% 5.4 mph WSW8.7 kmh WSW 6.9 mph11.1 kmh 29.92 in1013.2 mb 0.00 in0.0 mm 0.00 in0.0 mm 0.00 in0.0 mm
10:45 PM 70.5°F21.4°C 61.5°F16.4°C 73% 5.4 mph WSW8.7 kmh WSW 6.9 mph11.1 kmh 29.92 in1013.2 mb 0.00 in0.0 mm 0.00 in0.0 mm 0.00 in0.0 mm
10:50 PM 70.5°F21.4°C 61.5°F16.4°C 73% 5.4 mph WSW8.7 kmh WSW 6.9 mph11.1 kmh 29.92 in1013.2 mb 0.00 in0.0 mm 0.00 in0.0 mm 0.00 in0.0 mm
10:55 PM 70.5°F21.4°C 61.5°F16.4°C 73% 5.4 mph WSW8.7 kmh WSW 6.9 mph11.1 kmh 29.92 in1013.2 mb 0.00 in0.0 mm 0.00 in0.0 mm 0.00 in0.0 mm
11:00 PM 70.5°F21.4°C 61.5°F16.4°C 73% 5.4 mph WSW8.7 kmh WSW 6.9 mph11.1 kmh 29.92 in1013.2 mb 0.00 in0.0 mm 0.00 in0.0 mm 0.00 in0.0 mm
11:05 PM 70.5°F21.4°C 61.5°F16.4°C 73% 5.4 mph WSW8.7 kmh WSW 6.9 mph11.1 kmh 29.92 in1013.2 mb 0.00 in0.0 mm 0.00 in0.0 mm 0.00 in0.0 mm
11:10 PM 70.5°F21.4°C 61.5°F16.4°C 73% 5.4 mph WSW8.7 kmh WSW 6.9 mph11.1 kmh 29.92 in1013.2 mb 0.00 in0.0 mm 0.00 in0.0 mm 0.00 in0.0 mm
11:15 PM 70.5°F21.4°C 61.5°F16.4°C 73% 5.4 mph WSW8.7 kmh WSW 6.9 mph11.1 kmh 29.92 in1013.2 mb 0.00 in0.0 mm 0.00 in0.0 mm 0.00 in0.0 mm
11:20 PM 70.5°F21.4°C 61.5°F16.4°C 73% 5.4 mph WSW8.7 kmh WSW 6.9 mph11.1 kmh 29.93 in1013.5 mb 0.00 in0.0 mm 0.00 in0.0 mm 0.00 in0.0 mm
11:25 PM 70.5°F21.4°C 61.5°F16.4°C 73% 5.4 mph WSW8.7 kmh WSW 6.9 mph11.1 kmh 29.93 in1013.5 mb 0.00 in0.0 mm 0.00 in0.0 mm 0.00 in0.0 mm
11:30 PM 70.5°F21.4°C 61.5°F16.4°C 73% 5.4 mph WSW8.7 kmh WSW 6.9 mph11.1 kmh 29.92 in1013.2 mb 0.00 in0.0 mm 0.00 in0.0 mm 0.00 in0.0 mm
11:35 PM 70.5°F21.4°C 61.5°F16.4°C 73% 5.4 mph WSW8.7 kmh WSW 6.9 mph11.1 kmh 29.93 in1013.5 mb 0.00 in0.0 mm 0.00 in0.0 mm 0.00 in0.0 mm
11:40 PM 70.5°F21.4°C 61.5°F16.4°C 73% 5.4 mph WSW8.7 kmh WSW 6.9 mph11.1 kmh 29.93 in1013.5 mb 0.00 in0.0 mm 0.00 in0.0 mm 0.00 in0.0 mm
11:45 PM 68.0°F20.0°C 61.3°F16.3°C 79% 1.6 mph NW2.6 kmh NW 3.1 mph5.0 kmh 29.93 in1013.5 mb 0.00 in0.0 mm 0.00 in0.0 mm 0.00 in0.0 mm
11:50 PM 67.6°F19.8°C 61.3°F16.3°C 80% 3.1 mph W5.0 kmh W 4.5 mph7.2 kmh 29.93 in1013.5 mb 0.00 in0.0 mm 0.00 in0.0 mm 0.00 in0.0 mm
11:55 PM 67.6°F19.8°C 61.3°F16.3°C 80% 3.1 mph SW5.0 kmh SW 4.5 mph7.2 kmh 29.93 in1013.5 mb 0.00 in0.0 mm 0.00 in0.0 mm 0.00 in0.0 mm